createdAt,value
2018-04-19T00:00:04.887Z,15.20
2018-04-19T00:02:32.173Z,15.10
2018-04-19T00:04:58.394Z,15.10
2018-04-19T00:07:24.589Z,15.10
2018-04-19T00:09:50.840Z,15.00
2018-04-19T00:12:17.139Z,15.00
2018-04-19T00:14:43.420Z,15.00
2018-04-19T00:17:10.395Z,15.00
2018-04-19T00:19:37.356Z,14.90
2018-04-19T00:22:03.571Z,14.90
2018-04-19T00:24:29.792Z,14.90
2018-04-19T00:26:56.009Z,14.80
2018-04-19T00:29:22.984Z,14.80
2018-04-19T00:31:49.283Z,14.80
2018-04-19T00:34:15.507Z,14.80
2018-04-19T00:36:41.744Z,14.80
2018-04-19T00:39:08.703Z,14.80
2018-04-19T00:41:34.947Z,14.80
2018-04-19T00:44:01.168Z,14.70
2018-04-19T00:46:27.437Z,14.80
2018-04-19T00:48:53.656Z,14.80
2018-04-19T00:51:19.940Z,14.80
2018-04-19T00:53:46.903Z,14.80
2018-04-19T00:56:13.127Z,14.80
2018-04-19T00:58:40.131Z,14.90
2018-04-19T01:01:06.369Z,14.90
2018-04-19T01:03:33.352Z,15.00
2018-04-19T01:05:59.588Z,14.90
2018-04-19T01:08:25.831Z,14.90
2018-04-19T01:10:52.059Z,14.90
2018-04-19T01:13:18.303Z,14.90
2018-04-19T01:15:44.535Z,14.90
2018-04-19T01:18:10.764Z,14.80
2018-04-19T01:20:37.749Z,14.70
2018-04-19T01:23:04.735Z,14.70
2018-04-19T01:25:30.984Z,14.70
2018-04-19T01:27:57.225Z,14.70
2018-04-19T01:30:23.443Z,14.60
2018-04-19T01:32:49.688Z,14.60
2018-04-19T01:35:15.928Z,14.60
2018-04-19T01:37:44.069Z,14.60
2018-04-19T01:40:10.311Z,14.60
2018-04-19T01:42:36.563Z,14.60
2018-04-19T01:45:02.787Z,14.50
2018-04-19T01:47:28.991Z,14.50
2018-04-19T01:49:55.216Z,14.40
2018-04-19T01:52:21.419Z,14.40
2018-04-19T01:54:48.736Z,14.40
2018-04-19T01:57:15.705Z,14.30
2018-04-19T01:59:41.939Z,14.30
2018-04-19T02:02:08.891Z,14.20
2018-04-19T02:04:35.141Z,14.20
2018-04-19T02:07:01.400Z,14.20
2018-04-19T02:09:27.639Z,14.20
2018-04-19T02:11:53.845Z,14.20
2018-04-19T02:14:20.067Z,14.10
2018-04-19T02:16:46.303Z,14.10
2018-04-19T02:19:12.614Z,14.10
2018-04-19T02:21:38.796Z,14.10
2018-04-19T02:24:05.776Z,14.10
2018-04-19T02:26:31.919Z,14.00
2018-04-19T02:28:58.156Z,14.00
2018-04-19T02:31:24.410Z,13.90
2018-04-19T02:33:50.767Z,13.90
2018-04-19T02:36:17.756Z,13.80
2018-04-19T02:38:43.996Z,13.80
2018-04-19T02:41:10.224Z,13.70
2018-04-19T02:43:36.447Z,13.70
2018-04-19T02:46:02.635Z,13.70
2018-04-19T02:48:29.596Z,13.60
2018-04-19T02:50:56.536Z,13.60
2018-04-19T02:53:22.802Z,13.60
2018-04-19T02:55:49.048Z,13.60
2018-04-19T02:58:15.276Z,13.60
2018-04-19T03:00:41.524Z,13.50
2018-04-19T03:03:08.504Z,13.50
2018-04-19T03:05:35.451Z,13.40
2018-04-19T03:08:01.683Z,13.40
2018-04-19T03:10:27.928Z,13.40
2018-04-19T03:12:54.165Z,13.40
2018-04-19T03:15:20.383Z,13.50
2018-04-19T03:17:46.674Z,13.40
2018-04-19T03:20:13.647Z,13.40
2018-04-19T03:22:40.624Z,13.40
2018-04-19T03:25:06.846Z,13.40
2018-04-19T03:27:33.083Z,13.40
2018-04-19T03:29:59.291Z,13.40
2018-04-19T03:32:25.504Z,13.40
2018-04-19T03:34:51.748Z,13.40
2018-04-19T03:37:17.999Z,13.40
2018-04-19T03:39:44.240Z,13.40
2018-04-19T03:42:10.580Z,13.30
2018-04-19T03:44:36.819Z,13.30
2018-04-19T03:47:03.788Z,13.30
2018-04-19T03:49:30.763Z,13.30
2018-04-19T03:51:56.991Z,13.30
2018-04-19T03:54:23.235Z,13.30
2018-04-19T03:56:49.519Z,13.30
2018-04-19T03:59:16.487Z,13.30
2018-04-19T04:01:42.733Z,13.20
2018-04-19T04:04:08.934Z,13.20
2018-04-19T04:06:35.879Z,13.30
2018-04-19T04:09:02.146Z,13.20
2018-04-19T04:11:28.386Z,13.20
2018-04-19T04:13:54.611Z,13.20
2018-04-19T04:16:33.336Z,13.10
2018-04-19T04:19:11.931Z,13.10
2018-04-19T04:21:50.433Z,13.10
2018-04-19T04:24:17.423Z,13.00
2018-04-19T04:26:43.707Z,13.00
2018-04-19T04:29:09.983Z,13.00
2018-04-19T04:31:36.246Z,13.00
2018-04-19T04:34:03.207Z,13.00
2018-04-19T04:36:30.156Z,13.00
2018-04-19T04:38:57.108Z,13.00
2018-04-19T04:41:23.335Z,13.00
2018-04-19T04:43:50.303Z,13.00
2018-04-19T04:46:16.515Z,13.00
2018-04-19T04:48:42.725Z,13.00
2018-04-19T04:51:09.695Z,13.00
2018-04-19T04:53:35.915Z,13.00
2018-04-19T04:56:02.160Z,13.10
2018-04-19T04:58:28.407Z,13.00
2018-04-19T05:00:54.650Z,13.00
2018-04-19T05:03:20.892Z,13.00
2018-04-19T05:05:47.951Z,13.10
2018-04-19T05:08:14.137Z,13.10
2018-04-19T05:10:40.371Z,13.10
2018-04-19T05:13:06.616Z,13.20
2018-04-19T05:15:32.987Z,13.20
2018-04-19T05:17:59.216Z,13.20
2018-04-19T05:20:26.278Z,13.30
2018-04-19T05:22:52.447Z,13.30
2018-04-19T05:25:18.672Z,13.40
2018-04-19T05:27:44.907Z,13.40
2018-04-19T05:30:11.284Z,13.50
2018-04-19T05:32:37.507Z,13.60
2018-04-19T05:35:03.744Z,13.60
2018-04-19T05:37:29.979Z,13.80
2018-04-19T05:39:56.234Z,13.90
2018-04-19T05:42:22.464Z,14.20
2018-04-19T05:44:48.684Z,14.50
2018-04-19T05:47:14.932Z,14.80
2018-04-19T05:49:41.139Z,15.20
2018-04-19T05:52:07.351Z,16.10
2018-04-19T05:54:33.583Z,17.20
2018-04-19T05:56:59.819Z,18.30
2018-04-19T05:59:26.095Z,19.20
2018-04-19T06:01:53.103Z,20.50
2018-04-19T06:04:19.404Z,20.50
2018-04-19T06:06:46.075Z,20.90
2018-04-19T06:09:12.376Z,21.10
2018-04-19T06:11:38.580Z,21.40
2018-04-19T06:14:05.560Z,22.00
2018-04-19T06:16:31.827Z,22.00
2018-04-19T06:18:58.043Z,22.10
2018-04-19T06:21:24.268Z,22.10
2018-04-19T06:23:50.483Z,22.10
2018-04-19T06:26:16.784Z,22.00
2018-04-19T06:28:43.088Z,22.00
2018-04-19T06:31:09.370Z,21.90
2018-04-19T06:33:35.615Z,21.60
2018-04-19T06:36:02.627Z,21.30
2018-04-19T06:38:28.927Z,21.30
2018-04-19T06:40:55.319Z,21.30
2018-04-19T06:43:21.528Z,21.20
2018-04-19T06:45:47.771Z,21.20
2018-04-19T06:48:14.728Z,21.00
2018-04-19T06:50:40.929Z,21.00
2018-04-19T06:53:07.895Z,21.00
2018-04-19T06:55:34.140Z,21.00
2018-04-19T06:58:00.401Z,21.00
2018-04-19T07:00:26.612Z,21.20
2018-04-19T07:02:52.854Z,21.30
2018-04-19T07:05:19.079Z,21.30
2018-04-19T07:07:45.315Z,21.50
2018-04-19T07:10:11.519Z,21.60
2018-04-19T07:12:37.751Z,21.80
2018-04-19T07:15:04.803Z,22.00
2018-04-19T07:17:31.019Z,21.80
2018-04-19T07:19:57.269Z,22.00
2018-04-19T07:22:24.308Z,22.30
2018-04-19T07:24:50.525Z,22.30
2018-04-19T07:27:16.752Z,22.50
2018-04-19T07:29:42.976Z,22.60
2018-04-19T07:32:09.256Z,22.50
2018-04-19T07:34:35.448Z,22.60
2018-04-19T07:37:01.713Z,22.80
2018-04-19T07:39:28.748Z,22.80
2018-04-19T07:41:54.951Z,22.80
2018-04-19T07:44:21.225Z,22.90
2018-04-19T07:46:47.485Z,23.10
2018-04-19T07:49:13.747Z,23.00
2018-04-19T07:51:40.050Z,23.10
2018-04-19T07:54:06.353Z,23.30
2018-04-19T07:56:32.599Z,23.30
2018-04-19T07:58:58.854Z,23.50
2018-04-19T08:01:25.087Z,23.60
2018-04-19T08:03:52.024Z,23.60
2018-04-19T08:06:18.242Z,23.70
2018-04-19T08:08:45.187Z,23.60
2018-04-19T08:11:11.453Z,23.60
2018-04-19T08:13:37.659Z,23.70
2018-04-19T08:16:03.899Z,23.70
2018-04-19T08:18:30.239Z,23.90
2018-04-19T08:20:56.668Z,24.10
2018-04-19T08:23:22.918Z,24.30
2018-04-19T08:25:49.139Z,24.30
2018-04-19T08:28:15.368Z,24.30
2018-04-19T08:30:41.620Z,24.10
2018-04-19T08:33:07.828Z,24.10
2018-04-19T08:35:34.089Z,24.10
2018-04-19T08:38:00.288Z,24.30
2018-04-19T08:40:26.796Z,24.60
2018-04-19T08:42:53.044Z,24.60
2018-04-19T08:45:19.262Z,25.00
2018-04-19T08:47:45.505Z,25.30
2018-04-19T08:50:11.739Z,25.50
2018-04-19T08:52:37.944Z,25.60
2018-04-19T08:55:04.180Z,25.40
2018-04-19T08:57:30.394Z,25.50
2018-04-19T08:59:56.599Z,25.50
2018-04-19T09:02:22.816Z,25.60
2018-04-19T09:04:49.770Z,25.90
2018-04-19T09:07:16.723Z,26.10
2018-04-19T09:09:43.691Z,26.10
2018-04-19T09:12:09.945Z,26.10
2018-04-19T09:14:36.171Z,26.40
2018-04-19T09:17:02.420Z,26.70
2018-04-19T09:19:29.433Z,27.40
2018-04-19T09:21:56.359Z,27.70
2018-04-19T09:24:22.599Z,27.70
2018-04-19T09:26:48.896Z,28.20
2018-04-19T09:29:15.076Z,28.60
2018-04-19T09:31:42.030Z,29.00
2018-04-19T09:34:08.319Z,29.00
2018-04-19T09:36:35.854Z,29.20
2018-04-19T09:39:03.291Z,28.90
2018-04-19T09:41:29.516Z,29.10
2018-04-19T09:43:56.480Z,29.40
2018-04-19T09:46:23.452Z,29.50
2018-04-19T09:48:49.667Z,29.50
2018-04-19T09:51:15.886Z,29.40
2018-04-19T09:53:42.387Z,29.80
2018-04-19T09:56:08.627Z,30.00
2018-04-19T09:58:34.895Z,30.10
2018-04-19T10:01:07.287Z,30.30
2018-04-19T10:03:40.275Z,30.40
2018-04-19T10:06:08.698Z,30.30
2018-04-19T10:08:35.690Z,30.20
2018-04-19T10:11:02.723Z,30.50
2018-04-19T10:13:29.712Z,30.70
2018-04-19T10:15:56.032Z,30.70
2018-04-19T10:18:22.192Z,31.00
2018-04-19T10:20:48.412Z,31.00
2018-04-19T10:23:17.164Z,31.20
2018-04-19T10:25:43.907Z,31.40
2018-04-19T10:28:10.147Z,31.40
2018-04-19T10:30:36.394Z,31.10
2018-04-19T10:33:03.394Z,30.60
2018-04-19T10:35:30.355Z,30.80
2018-04-19T10:37:56.592Z,30.80
2018-04-19T10:40:22.820Z,31.00
2018-04-19T10:42:49.057Z,31.00
2018-04-19T10:45:15.778Z,30.90
2018-04-19T10:47:42.011Z,31.10
2018-04-19T10:50:08.943Z,30.90
2018-04-19T10:52:35.248Z,30.90
2018-04-19T10:55:02.240Z,30.80
2018-04-19T10:57:28.470Z,30.70
2018-04-19T10:59:54.683Z,30.90
2018-04-19T11:02:20.922Z,30.90
2018-04-19T11:04:47.151Z,31.00
2018-04-19T11:07:13.455Z,31.00
2018-04-19T11:09:40.426Z,31.50
2018-04-19T11:12:06.694Z,31.50
2018-04-19T11:14:32.907Z,31.80
2018-04-19T11:16:59.143Z,32.10
2018-04-19T11:19:25.360Z,32.40
2018-04-19T11:21:51.618Z,32.30
2018-04-19T11:24:17.844Z,32.20
2018-04-19T11:26:44.084Z,32.30
2018-04-19T11:29:10.312Z,32.50
2018-04-19T11:31:37.347Z,32.60
2018-04-19T11:34:04.189Z,32.50
2018-04-19T11:36:30.400Z,32.60
2018-04-19T11:38:56.619Z,32.80
2018-04-19T11:41:22.952Z,32.90
2018-04-19T11:43:49.179Z,33.10
2018-04-19T11:46:15.408Z,33.10
2018-04-19T11:48:41.639Z,33.10
2018-04-19T11:51:07.948Z,33.00
2018-04-19T11:53:34.190Z,32.80
2018-04-19T11:56:00.419Z,32.50
2018-04-19T11:58:26.688Z,32.70
2018-04-19T12:00:53.698Z,33.10
2018-04-19T12:03:19.948Z,33.00
2018-04-19T12:05:46.143Z,33.40
2018-04-19T12:08:12.372Z,33.20
2018-04-19T12:10:38.622Z,33.20
2018-04-19T12:13:04.847Z,33.30
2018-04-19T12:15:31.072Z,33.40
2018-04-19T12:17:57.299Z,33.40
2018-04-19T12:20:23.550Z,33.40
2018-04-19T12:22:49.813Z,33.10
2018-04-19T12:25:16.036Z,33.10
2018-04-19T12:27:43.024Z,33.10
2018-04-19T12:30:09.268Z,33.20
2018-04-19T12:32:35.532Z,33.00
2018-04-19T12:35:01.779Z,33.10
2018-04-19T12:37:28.799Z,33.10
2018-04-19T12:39:55.009Z,33.10
2018-04-19T12:42:21.228Z,33.00
2018-04-19T12:44:47.502Z,33.20
2018-04-19T12:47:14.101Z,33.10
2018-04-19T12:49:40.335Z,33.00
2018-04-19T12:52:07.259Z,32.80
2018-04-19T12:54:34.204Z,33.00
2018-04-19T12:57:00.420Z,33.00
2018-04-19T12:59:26.656Z,33.30
2018-04-19T13:01:52.876Z,33.50
2018-04-19T13:04:19.854Z,33.60
2018-04-19T13:06:46.124Z,33.60
2018-04-19T13:09:13.115Z,33.10
2018-04-19T13:11:43.456Z,33.10
2018-04-19T13:14:09.944Z,32.60
2018-04-19T13:16:36.171Z,32.80
2018-04-19T13:19:03.220Z,33.00
2018-04-19T13:21:30.204Z,33.20
2018-04-19T13:23:56.459Z,33.20
2018-04-19T13:26:22.700Z,33.40
2018-04-19T13:28:49.692Z,33.30
2018-04-19T13:31:16.653Z,33.20
2018-04-19T13:33:43.669Z,33.30
2018-04-19T13:36:09.919Z,33.30
2018-04-19T13:38:36.149Z,33.20
2018-04-19T13:41:02.385Z,33.40
2018-04-19T13:43:29.361Z,33.60
2018-04-19T13:45:55.603Z,33.60
2018-04-19T13:48:21.814Z,33.70
2018-04-19T13:50:48.051Z,33.50
2018-04-19T13:53:14.276Z,33.20
2018-04-19T13:55:40.499Z,33.20
2018-04-19T13:58:06.856Z,33.50
2018-04-19T14:00:33.114Z,33.90
2018-04-19T14:03:00.101Z,34.10
2018-04-19T14:05:26.348Z,34.10
2018-04-19T14:07:52.572Z,34.20
2018-04-19T14:10:18.791Z,33.90
2018-04-19T14:12:45.017Z,34.10
2018-04-19T14:15:11.242Z,34.10
2018-04-19T14:17:37.511Z,34.10
2018-04-19T14:20:03.760Z,34.30
2018-04-19T14:22:30.733Z,34.50
2018-04-19T14:24:56.955Z,34.50
2018-04-19T14:27:23.906Z,33.80
2018-04-19T14:29:50.132Z,33.70
2018-04-19T14:32:16.360Z,33.70
2018-04-19T14:34:43.340Z,33.60
2018-04-19T14:37:09.569Z,33.60
2018-04-19T14:39:35.792Z,33.60
2018-04-19T14:42:02.046Z,33.70
2018-04-19T14:44:28.386Z,33.30
2018-04-19T14:46:54.647Z,33.20
2018-04-19T14:49:21.612Z,33.30
2018-04-19T14:51:47.866Z,33.30
2018-04-19T14:54:14.099Z,33.30
2018-04-19T14:56:40.316Z,33.10
2018-04-19T14:59:06.555Z,33.00
2018-04-19T15:01:32.877Z,32.90
2018-04-19T15:03:59.206Z,32.70
2018-04-19T15:06:25.732Z,32.60
2018-04-19T15:08:52.184Z,32.50
2018-04-19T15:11:19.495Z,32.80
2018-04-19T15:13:46.467Z,32.90
2018-04-19T15:16:12.694Z,32.80
2018-04-19T15:18:38.954Z,32.80
2018-04-19T15:21:05.296Z,32.80
2018-04-19T15:23:31.520Z,32.70
2018-04-19T15:25:57.749Z,32.30
2018-04-19T15:28:23.959Z,32.10
2018-04-19T15:30:50.180Z,31.70
2018-04-19T15:33:16.400Z,31.60
2018-04-19T15:35:42.615Z,31.20
2018-04-19T15:38:08.912Z,31.20
2018-04-19T15:40:35.267Z,31.00
2018-04-19T15:43:01.584Z,30.50
2018-04-19T15:45:27.812Z,30.10
2018-04-19T15:47:54.083Z,30.00
2018-04-19T15:50:21.016Z,29.30
2018-04-19T15:52:47.235Z,29.30
2018-04-19T15:55:13.464Z,29.20
2018-04-19T15:57:40.414Z,29.30
2018-04-19T16:00:06.712Z,29.20
2018-04-19T16:02:33.722Z,29.30
2018-04-19T16:04:59.958Z,29.30
2018-04-19T16:07:26.151Z,29.40
2018-04-19T16:09:52.408Z,29.40
2018-04-19T16:12:18.624Z,29.30
2018-04-19T16:14:44.868Z,29.30
2018-04-19T16:17:11.120Z,29.30
2018-04-19T16:19:37.331Z,29.30
2018-04-19T16:22:03.527Z,29.10
2018-04-19T16:24:29.755Z,29.10
2018-04-19T16:26:55.971Z,29.00
2018-04-19T16:29:22.932Z,28.90
2018-04-19T16:31:49.154Z,28.90
2018-04-19T16:34:15.394Z,28.90
2018-04-19T16:36:42.362Z,29.00
2018-04-19T16:39:08.581Z,29.00
2018-04-19T16:41:34.819Z,28.80
2018-04-19T16:44:01.049Z,28.70
2018-04-19T16:46:27.351Z,28.70
2018-04-19T16:48:53.559Z,28.80
2018-04-19T16:51:20.532Z,28.50
2018-04-19T16:53:46.756Z,28.50
2018-04-19T16:56:13.016Z,28.30
2018-04-19T16:58:39.241Z,28.40
2018-04-19T17:01:05.508Z,28.40
2018-04-19T17:03:31.766Z,28.30
2018-04-19T17:05:57.956Z,28.20
2018-04-19T17:08:25.211Z,28.10
2018-04-19T17:10:51.450Z,27.90
2018-04-19T17:13:18.431Z,27.70
2018-04-19T17:15:44.707Z,27.60
2018-04-19T17:18:10.903Z,27.80
2018-04-19T17:20:37.135Z,27.70
2018-04-19T17:23:03.373Z,27.70
2018-04-19T17:25:29.607Z,27.70
2018-04-19T17:27:55.843Z,27.60
2018-04-19T17:30:22.062Z,27.30
2018-04-19T17:32:48.315Z,27.20
2018-04-19T17:35:14.529Z,27.00
2018-04-19T17:37:40.747Z,27.10
2018-04-19T17:40:06.951Z,27.10
2018-04-19T17:42:33.244Z,27.10
2018-04-19T17:44:59.525Z,27.00
2018-04-19T17:47:25.772Z,26.90
2018-04-19T17:49:52.017Z,26.90
2018-04-19T17:52:18.264Z,26.80
2018-04-19T17:54:45.297Z,26.60
2018-04-19T17:57:11.520Z,26.60
2018-04-19T17:59:37.755Z,26.60
2018-04-19T18:02:04.004Z,26.60
2018-04-19T18:04:30.227Z,26.50
2018-04-19T18:06:57.208Z,26.40
2018-04-19T18:09:23.495Z,26.30
2018-04-19T18:11:49.752Z,26.40
2018-04-19T18:14:16.051Z,26.30
2018-04-19T18:16:42.311Z,26.40
2018-04-19T18:19:09.281Z,26.20
2018-04-19T18:21:35.519Z,26.20
2018-04-19T18:24:01.765Z,26.10
2018-04-19T18:26:28.000Z,26.00
2018-04-19T18:28:54.208Z,25.90
2018-04-19T18:31:20.479Z,25.80
2018-04-19T18:33:46.793Z,25.70
2018-04-19T18:36:13.039Z,25.60
2018-04-19T18:38:40.021Z,25.30
2018-04-19T18:41:06.256Z,25.30
2018-04-19T18:43:32.504Z,25.20
2018-04-19T18:45:58.755Z,25.20
2018-04-19T18:48:24.978Z,25.00
2018-04-19T18:50:51.179Z,25.00
2018-04-19T18:53:17.448Z,24.90
2018-04-19T18:55:43.676Z,24.90
2018-04-19T18:58:09.908Z,24.70
2018-04-19T19:00:36.129Z,24.60
2018-04-19T19:03:02.356Z,24.40
2018-04-19T19:05:28.591Z,24.30
2018-04-19T19:07:54.783Z,24.10
2018-04-19T19:10:21.023Z,24.00
2018-04-19T19:12:47.237Z,23.80
2018-04-19T19:18:37.412Z,23.40
2018-04-19T19:21:03.613Z,23.20
2018-04-19T19:23:30.872Z,23.10
2018-04-19T19:25:57.093Z,22.80
2018-04-19T19:28:23.348Z,22.70
2018-04-19T19:30:50.379Z,22.50
2018-04-19T19:33:16.616Z,22.50
2018-04-19T19:35:42.847Z,22.40
2018-04-19T19:38:09.072Z,22.30
2018-04-19T19:40:35.292Z,22.30
2018-04-19T19:43:01.548Z,22.20
2018-04-19T19:45:27.809Z,22.10
2018-04-19T19:47:54.149Z,22.00
2018-04-19T19:50:20.520Z,21.90
2018-04-19T19:52:46.803Z,21.90
2018-04-19T19:55:13.073Z,21.80
2018-04-19T19:57:39.413Z,21.70
2018-04-19T20:00:05.635Z,21.60
2018-04-19T20:02:31.864Z,21.50
2018-04-19T20:04:58.092Z,21.50
2018-04-19T20:07:24.345Z,21.40
2018-04-19T20:09:50.683Z,21.40
2018-04-19T20:12:16.936Z,21.40
2018-04-19T20:14:43.159Z,21.30
2018-04-19T20:17:09.428Z,21.20
2018-04-19T20:19:36.443Z,21.10
2018-04-19T20:22:03.419Z,21.00
2018-04-19T20:24:29.681Z,21.00
2018-04-19T20:26:56.051Z,20.90
2018-04-19T20:29:22.348Z,20.90
2018-04-19T20:31:49.388Z,20.70
2018-04-19T20:34:16.396Z,20.60
2018-04-19T20:36:42.668Z,20.60
2018-04-19T20:39:08.867Z,20.60
2018-04-19T20:41:35.224Z,20.40
2018-04-19T20:44:02.242Z,20.30
2018-04-19T20:46:28.479Z,20.30
2018-04-19T20:48:54.842Z,20.20
2018-04-19T20:51:21.811Z,20.00
2018-04-19T20:53:48.792Z,19.90
2018-04-19T20:56:15.044Z,19.90
2018-04-19T20:58:41.301Z,19.90
2018-04-19T21:01:08.284Z,19.80
2018-04-19T21:03:34.568Z,19.70
2018-04-19T21:06:01.573Z,19.60
2018-04-19T21:08:27.795Z,19.60
2018-04-19T21:10:54.108Z,19.60
2018-04-19T21:13:20.492Z,19.50
2018-04-19T21:15:46.851Z,19.50
2018-04-19T21:18:13.831Z,19.30
2018-04-19T21:20:40.047Z,19.30
2018-04-19T21:23:07.059Z,19.20
2018-04-19T21:25:34.099Z,19.20
2018-04-19T21:28:00.332Z,19.20
2018-04-19T21:30:26.536Z,19.10
2018-04-19T21:32:52.768Z,19.00
2018-04-19T21:35:19.022Z,19.00
2018-04-19T21:37:45.223Z,19.00
2018-04-19T21:40:11.452Z,19.00
2018-04-19T21:42:37.679Z,19.00
2018-04-19T21:45:03.887Z,18.90
2018-04-19T21:47:30.130Z,18.80
2018-04-19T21:49:56.337Z,18.80
2018-04-19T21:52:23.283Z,18.80
2018-04-19T21:54:49.536Z,18.70
2018-04-19T21:57:15.768Z,18.70
2018-04-19T21:59:41.968Z,18.70
2018-04-19T22:02:08.188Z,18.70
2018-04-19T22:04:34.500Z,18.70
2018-04-19T22:07:01.471Z,18.70
2018-04-19T22:09:28.408Z,18.70
2018-04-19T22:11:55.393Z,18.70
2018-04-19T22:14:21.748Z,18.70
2018-04-19T22:16:47.977Z,18.70
2018-04-19T22:19:14.992Z,18.70
2018-04-19T22:21:41.263Z,18.60
2018-04-19T22:24:07.500Z,18.60
2018-04-19T22:26:33.815Z,18.60
2018-04-19T22:29:01.080Z,18.50
2018-04-19T22:31:27.403Z,18.50
2018-04-19T22:33:53.739Z,18.40
2018-04-19T22:36:20.781Z,18.30
2018-04-19T22:38:46.999Z,18.30
2018-04-19T22:41:13.205Z,18.20
2018-04-19T22:43:39.436Z,18.20
2018-04-19T22:46:05.656Z,18.10
2018-04-19T22:48:31.880Z,18.10
2018-04-19T22:50:58.163Z,18.10
2018-04-19T22:53:24.396Z,18.10
2018-04-19T22:55:50.603Z,18.10
2018-04-19T22:58:16.830Z,18.00
2018-04-19T23:00:43.031Z,18.00
2018-04-19T23:03:09.275Z,18.00
2018-04-19T23:05:35.672Z,17.90
2018-04-19T23:08:01.964Z,17.90
2018-04-19T23:10:28.159Z,17.90
2018-04-19T23:12:54.383Z,17.80
2018-04-19T23:15:21.676Z,17.80
2018-04-19T23:17:48.677Z,17.80
2018-04-19T23:20:14.895Z,17.80
2018-04-19T23:22:41.827Z,17.70
2018-04-19T23:25:08.837Z,17.60
2018-04-19T23:27:35.059Z,17.70
2018-04-19T23:30:02.061Z,17.50
2018-04-19T23:32:28.304Z,17.50
2018-04-19T23:34:54.555Z,17.60
2018-04-19T23:37:21.549Z,17.60
2018-04-19T23:39:47.782Z,17.60
2018-04-19T23:42:14.741Z,17.50
2018-04-19T23:44:40.955Z,17.50
2018-04-19T23:47:07.202Z,17.40
2018-04-19T23:49:33.429Z,17.50
2018-04-19T23:51:59.663Z,17.40
2018-04-19T23:54:25.879Z,17.50
2018-04-19T23:56:52.852Z,17.40
2018-04-19T23:59:19.060Z,17.40
